createdAt,value
2018-05-09T00:01:22.395Z,3.80
2018-05-09T00:03:49.911Z,3.70
2018-05-09T00:06:17.434Z,4.10
2018-05-09T00:08:44.956Z,3.47
2018-05-09T00:11:12.709Z,4.13
2018-05-09T00:13:40.981Z,4.10
2018-05-09T00:16:09.276Z,4.40
2018-05-09T00:18:36.777Z,4.30
2018-05-09T00:21:04.310Z,3.87
2018-05-09T00:23:31.815Z,3.90
2018-05-09T00:26:00.102Z,4.10
2018-05-09T00:28:28.373Z,3.90
2018-05-09T00:30:56.672Z,3.80
2018-05-09T00:33:24.182Z,4.40
2018-05-09T00:35:51.717Z,5.20
2018-05-09T00:38:19.225Z,4.30
2018-05-09T00:40:46.746Z,3.60
2018-05-09T00:43:14.287Z,3.90
2018-05-09T00:45:41.814Z,3.60
2018-05-09T00:48:09.315Z,3.97
2018-05-09T00:50:36.842Z,3.80
2018-05-09T00:53:04.347Z,3.87
2018-05-09T00:55:32.638Z,4.07
2018-05-09T00:58:00.147Z,3.80
2018-05-09T01:00:27.673Z,4.10
2018-05-09T01:02:55.216Z,3.60
2018-05-09T01:05:22.723Z,4.17
2018-05-09T01:07:50.262Z,4.10
2018-05-09T01:10:18.107Z,3.67
2018-05-09T01:12:45.633Z,4.33
2018-05-09T01:15:13.139Z,4.10
2018-05-09T01:17:40.669Z,3.67
2018-05-09T01:20:08.175Z,4.03
2018-05-09T01:22:35.702Z,4.10
2018-05-09T01:25:03.206Z,4.57
2018-05-09T01:27:30.766Z,4.77
2018-05-09T01:29:58.275Z,3.77
2018-05-09T01:32:25.803Z,3.73
2018-05-09T01:34:53.307Z,4.07
2018-05-09T01:37:20.836Z,3.50
2018-05-09T01:39:48.350Z,3.90
2018-05-09T01:42:15.878Z,3.60
2018-05-09T01:44:43.383Z,3.63
2018-05-09T01:47:10.911Z,4.27
2018-05-09T01:49:38.423Z,4.23
2018-05-09T01:52:06.714Z,4.23
2018-05-09T01:54:34.217Z,3.77
2018-05-09T01:57:01.755Z,4.20
2018-05-09T01:59:29.259Z,4.10
2018-05-09T02:01:56.787Z,3.80
2018-05-09T02:04:24.295Z,4.60
2018-05-09T02:06:51.825Z,3.90
2018-05-09T02:09:19.335Z,4.20
2018-05-09T02:11:46.863Z,3.80
2018-05-09T02:14:14.475Z,4.47
2018-05-09T02:16:42.002Z,4.50
2018-05-09T02:19:10.269Z,3.50
2018-05-09T02:21:38.573Z,4.40
2018-05-09T02:24:06.142Z,3.60
2018-05-09T02:26:33.653Z,3.60
2018-05-09T02:29:01.921Z,3.80
2018-05-09T02:31:30.562Z,3.63
2018-05-09T02:33:58.062Z,4.23
2018-05-09T02:36:26.689Z,4.43
2018-05-09T02:38:54.253Z,3.83
2018-05-09T02:41:21.782Z,4.53
2018-05-09T02:43:49.312Z,4.40
2018-05-09T02:46:16.834Z,4.20
2018-05-09T02:48:44.355Z,4.80
2018-05-09T02:51:11.899Z,3.80
2018-05-09T02:53:39.407Z,3.63
2018-05-09T02:56:06.935Z,3.70
2018-05-09T02:58:34.442Z,3.50
2018-05-09T03:01:01.962Z,4.17
2018-05-09T03:03:29.467Z,4.40
2018-05-09T03:05:57.773Z,4.27
2018-05-09T03:08:25.282Z,4.60
2018-05-09T03:10:52.789Z,4.57
2018-05-09T03:13:20.321Z,4.60
2018-05-09T03:15:47.827Z,3.90
2018-05-09T03:18:15.350Z,4.30
2018-05-09T03:20:42.852Z,4.40
2018-05-09T03:23:10.378Z,3.63
2018-05-09T03:25:37.886Z,4.10
2018-05-09T03:28:06.179Z,4.00
2018-05-09T03:30:33.682Z,4.40
2018-05-09T03:33:01.211Z,3.70
2018-05-09T03:35:28.717Z,4.03
2018-05-09T03:37:57.020Z,4.30
2018-05-09T03:40:24.531Z,4.07
2018-05-09T03:42:52.058Z,3.97
2018-05-09T03:45:19.597Z,4.23
2018-05-09T03:47:47.114Z,4.30
2018-05-09T03:50:15.386Z,4.37
2018-05-09T03:52:43.205Z,5.20
2018-05-09T03:55:10.707Z,4.03
2018-05-09T03:57:39.002Z,4.57
2018-05-09T04:00:06.533Z,3.90
2018-05-09T04:05:50.582Z,3.90
2018-05-09T04:08:29.956Z,4.70
2018-05-09T04:10:57.457Z,4.20
2018-05-09T04:13:24.986Z,4.40
2018-05-09T04:15:52.759Z,4.17
2018-05-09T04:18:20.284Z,4.70
2018-05-09T04:20:47.796Z,3.90
2018-05-09T04:23:15.331Z,4.40
2018-05-09T04:25:42.837Z,4.27
2018-05-09T04:28:11.223Z,4.80
2018-05-09T04:30:38.919Z,4.20
2018-05-09T04:33:06.437Z,4.47
2018-05-09T04:35:34.706Z,4.60
2018-05-09T04:38:02.998Z,4.97
2018-05-09T04:40:30.503Z,4.60
2018-05-09T04:42:58.042Z,4.33
2018-05-09T04:45:25.567Z,4.20
2018-05-09T04:47:53.102Z,6.03
2018-05-09T04:50:21.375Z,4.10
2018-05-09T04:52:48.926Z,5.60
2018-05-09T04:55:17.200Z,4.50
2018-05-09T04:57:45.515Z,4.50
2018-05-09T05:00:13.054Z,5.17
2018-05-09T05:02:40.595Z,4.40
2018-05-09T05:05:08.866Z,4.50
2018-05-09T05:07:37.166Z,4.17
2018-05-09T05:10:04.688Z,4.50
2018-05-09T05:12:33.001Z,4.23
2018-05-09T05:15:00.502Z,4.27
2018-05-09T05:17:28.026Z,4.50
2018-05-09T05:19:55.526Z,4.30
2018-05-09T05:22:23.826Z,4.97
2018-05-09T05:24:51.339Z,4.50
2018-05-09T05:27:18.869Z,5.87
2018-05-09T05:29:46.390Z,5.00
2018-05-09T05:32:13.939Z,4.90
2018-05-09T05:34:42.218Z,8.13
2018-05-09T05:37:10.509Z,8.00
2018-05-09T05:39:38.015Z,6.27
2018-05-09T05:42:05.547Z,8.20
2018-05-09T05:44:33.054Z,4.93
2018-05-09T05:47:01.367Z,4.40
2018-05-09T05:49:28.874Z,3.73
2018-05-09T05:51:57.227Z,4.30
2018-05-09T05:54:24.700Z,5.50
2018-05-09T05:56:52.223Z,3.87
2018-05-09T05:59:19.728Z,4.60
2018-05-09T06:01:47.998Z,4.47
2018-05-09T06:04:16.290Z,3.90
2018-05-09T06:06:44.078Z,4.03
2018-05-09T06:09:11.602Z,4.17
2018-05-09T06:11:39.125Z,4.10
2018-05-09T06:14:06.661Z,6.20
2018-05-09T06:16:34.170Z,4.60
2018-05-09T06:19:01.709Z,4.90
2018-05-09T06:21:29.982Z,4.70
2018-05-09T06:23:58.371Z,4.77
2018-05-09T06:26:25.791Z,4.70
2018-05-09T06:28:53.622Z,4.40
2018-05-09T06:31:21.134Z,4.97
2018-05-09T06:33:49.430Z,4.87
2018-05-09T06:36:16.939Z,4.23
2018-05-09T06:38:44.475Z,4.30
2018-05-09T06:41:11.979Z,4.30
2018-05-09T06:43:40.300Z,4.27
2018-05-09T06:46:08.053Z,4.50
2018-05-09T06:48:35.590Z,4.10
2018-05-09T06:51:03.135Z,4.90
2018-05-09T06:53:30.663Z,4.10
2018-05-09T06:55:58.486Z,4.60
2018-05-09T06:58:26.023Z,4.30
2018-05-09T07:00:53.926Z,4.90
2018-05-09T07:03:21.425Z,4.50
2018-05-09T07:05:49.718Z,4.67
2018-05-09T07:08:17.226Z,4.30
2018-05-09T07:10:44.758Z,4.87
2018-05-09T07:13:12.257Z,4.23
2018-05-09T07:15:39.802Z,4.23
2018-05-09T07:18:07.308Z,4.40
2018-05-09T07:20:34.863Z,3.77
2018-05-09T07:23:02.637Z,4.33
2018-05-09T07:25:30.162Z,3.67
2018-05-09T07:27:57.686Z,4.60
2018-05-09T07:30:25.214Z,3.97
2018-05-09T07:32:52.719Z,4.10
2018-05-09T07:35:21.042Z,4.00
2018-05-09T07:37:48.534Z,3.67
2018-05-09T07:40:16.835Z,4.20
2018-05-09T07:42:45.256Z,4.47
2018-05-09T07:45:12.787Z,3.93
2018-05-09T07:47:40.405Z,3.90
2018-05-09T07:50:08.937Z,4.20
2018-05-09T07:52:36.443Z,3.93
2018-05-09T07:55:04.735Z,4.13
2018-05-09T07:57:32.259Z,3.70
2018-05-09T07:59:59.798Z,4.20
2018-05-09T08:02:27.457Z,4.67
2018-05-09T08:04:54.898Z,4.00
2018-05-09T08:07:22.468Z,4.33
2018-05-09T08:09:50.004Z,3.63
2018-05-09T08:12:17.510Z,3.90
2018-05-09T08:14:45.818Z,4.23
2018-05-09T08:17:13.331Z,4.20
2018-05-09T08:19:40.863Z,4.07
2018-05-09T08:22:08.394Z,3.90
2018-05-09T08:24:35.902Z,4.50
2018-05-09T08:27:03.426Z,5.00
2018-05-09T08:29:30.930Z,3.77
2018-05-09T08:31:59.223Z,3.93
2018-05-09T08:34:26.739Z,4.23
2018-05-09T08:36:54.274Z,4.43
2018-05-09T08:39:21.794Z,4.20
2018-05-09T08:41:49.331Z,4.47
2018-05-09T08:44:17.608Z,4.30
2018-05-09T08:46:45.142Z,4.30
2018-05-09T08:49:12.721Z,4.13
2018-05-09T08:51:40.981Z,3.43
2018-05-09T08:54:09.258Z,4.10
2018-05-09T08:56:36.811Z,3.73
2018-05-09T08:59:05.079Z,3.93
2018-05-09T09:01:32.627Z,4.30
2018-05-09T09:04:00.141Z,5.17
2018-05-09T09:06:27.754Z,3.90
2018-05-09T09:08:55.194Z,4.57
2018-05-09T09:11:22.718Z,3.93
2018-05-09T09:13:50.231Z,4.47
2018-05-09T09:16:18.521Z,4.20
2018-05-09T09:18:46.174Z,3.63
2018-05-09T09:21:14.350Z,4.73
2018-05-09T09:23:41.862Z,3.63
2018-05-09T09:26:09.390Z,4.00
2018-05-09T09:28:36.900Z,4.67
2018-05-09T09:31:05.195Z,4.13
2018-05-09T09:33:32.704Z,3.67
2018-05-09T09:36:00.239Z,3.97
2018-05-09T09:38:28.514Z,4.17
2018-05-09T09:40:56.048Z,4.20
2018-05-09T09:43:23.584Z,4.03
2018-05-09T09:45:51.121Z,4.30
2018-05-09T09:48:19.410Z,4.20
2018-05-09T09:50:47.041Z,4.47
2018-05-09T09:53:15.483Z,4.53
2018-05-09T09:55:43.027Z,4.17
2018-05-09T09:58:10.538Z,4.13
2018-05-09T10:00:38.063Z,4.80
2018-05-09T10:03:05.579Z,4.77
2018-05-09T10:05:33.122Z,3.93
2018-05-09T10:08:00.679Z,4.13
2018-05-09T10:10:28.152Z,4.37
2018-05-09T10:12:55.701Z,4.73
2018-05-09T10:15:23.208Z,4.87
2018-05-09T10:17:50.738Z,4.97
2018-05-09T10:20:18.514Z,4.63
2018-05-09T10:22:46.061Z,4.17
2018-05-09T10:25:13.584Z,3.83
2018-05-09T10:27:41.135Z,4.80
2018-05-09T10:30:09.410Z,4.37
2018-05-09T10:32:37.699Z,4.53
2018-05-09T10:35:05.218Z,4.17
2018-05-09T10:37:32.752Z,4.03
2018-05-09T10:40:01.035Z,4.13
2018-05-09T10:42:28.562Z,4.23
2018-05-09T10:44:56.074Z,4.07
2018-05-09T10:47:24.597Z,4.60
2018-05-09T10:49:52.099Z,4.00
2018-05-09T10:52:19.623Z,4.43
2018-05-09T10:54:47.138Z,4.07
2018-05-09T10:57:14.716Z,4.73
2018-05-09T10:59:42.955Z,4.80
2018-05-09T11:02:11.247Z,4.60
2018-05-09T11:04:38.746Z,4.60
2018-05-09T11:07:06.290Z,4.60
2018-05-09T11:09:33.797Z,4.60
2018-05-09T11:12:02.099Z,4.00
2018-05-09T11:14:29.622Z,4.20
2018-05-09T11:16:57.172Z,4.10
2018-05-09T11:19:25.442Z,4.17
2018-05-09T11:21:52.967Z,4.20
2018-05-09T11:24:20.491Z,4.07
2018-05-09T11:26:48.046Z,3.87
2018-05-09T11:29:15.571Z,4.10
2018-05-09T11:31:43.891Z,4.47
2018-05-09T11:34:11.435Z,4.23
2018-05-09T11:36:39.219Z,3.93
2018-05-09T11:39:06.731Z,4.53
2018-05-09T11:41:35.018Z,4.07
2018-05-09T11:44:02.532Z,4.20
2018-05-09T11:46:30.369Z,4.17
2018-05-09T11:48:57.917Z,4.10
2018-05-09T11:51:25.447Z,4.07
2018-05-09T11:53:52.961Z,4.20
2018-05-09T11:56:20.490Z,3.77
2018-05-09T11:58:48.024Z,3.70
2018-05-09T12:01:15.551Z,3.63
2018-05-09T12:03:43.818Z,4.10
2018-05-09T12:06:11.323Z,3.30
2018-05-09T12:08:38.851Z,4.17
2018-05-09T12:11:07.118Z,3.57
2018-05-09T12:13:35.415Z,3.60
2018-05-09T12:16:02.918Z,3.60
2018-05-09T12:18:31.234Z,3.50
2018-05-09T12:20:58.738Z,3.33
2018-05-09T12:23:26.588Z,4.17
2018-05-09T12:25:54.090Z,4.20
2018-05-09T12:28:22.983Z,3.93
2018-05-09T12:30:50.798Z,3.80
2018-05-09T12:33:18.328Z,3.70
2018-05-09T12:35:45.839Z,3.80
2018-05-09T12:38:13.375Z,3.83
2018-05-09T12:40:40.886Z,4.20
2018-05-09T12:43:08.419Z,4.03
2018-05-09T12:45:36.686Z,4.10
2018-05-09T12:48:05.010Z,4.00
2018-05-09T12:50:32.519Z,3.57
2018-05-09T12:53:00.278Z,3.73
2018-05-09T12:55:27.787Z,3.80
2018-05-09T12:57:55.314Z,3.70
2018-05-09T13:00:23.599Z,3.80
2018-05-09T13:02:51.195Z,4.00
2018-05-09T13:05:18.658Z,4.10
2018-05-09T13:07:46.188Z,4.07
2018-05-09T13:10:13.695Z,3.80
2018-05-09T13:12:41.995Z,3.97
2018-05-09T13:15:09.516Z,3.67
2018-05-09T13:17:37.043Z,3.47
2018-05-09T13:20:04.547Z,4.33
2018-05-09T13:22:32.848Z,3.90
2018-05-09T13:25:00.355Z,3.90
2018-05-09T13:27:27.882Z,3.77
2018-05-09T13:29:55.390Z,3.57
2018-05-09T13:32:24.018Z,4.20
2018-05-09T13:34:51.528Z,3.80
2018-05-09T13:37:20.152Z,4.13
2018-05-09T13:39:47.665Z,3.97
2018-05-09T13:42:15.962Z,3.17
2018-05-09T13:44:43.458Z,3.70
2018-05-09T13:47:10.986Z,3.27
2018-05-09T13:49:38.490Z,2.90
2018-05-09T13:52:06.416Z,2.53
2018-05-09T13:54:33.937Z,2.93
2018-05-09T13:57:01.466Z,2.60
2018-05-09T13:59:28.971Z,3.20
2018-05-09T14:01:56.476Z,3.23
2018-05-09T14:04:24.014Z,2.60
2018-05-09T14:06:51.562Z,3.80
2018-05-09T14:09:19.415Z,3.10
2018-05-09T14:11:46.924Z,2.97
2018-05-09T14:14:15.215Z,3.57
2018-05-09T14:16:42.727Z,2.90
2018-05-09T14:19:10.255Z,2.90
2018-05-09T14:21:37.764Z,2.63
2018-05-09T14:24:06.064Z,3.30
2018-05-09T14:26:33.580Z,2.30
2018-05-09T14:29:01.116Z,2.97
2018-05-09T14:31:28.632Z,3.07
2018-05-09T14:33:56.171Z,3.00
2018-05-09T14:36:23.695Z,3.03
2018-05-09T14:38:51.226Z,3.10
2018-05-09T14:41:18.732Z,2.97
2018-05-09T14:43:47.026Z,2.93
2018-05-09T14:46:14.532Z,2.70
2018-05-09T14:48:42.059Z,3.20
2018-05-09T14:51:09.566Z,3.30
2018-05-09T14:53:37.862Z,3.30
2018-05-09T14:56:05.366Z,3.20
2018-05-09T14:58:32.894Z,2.70
2018-05-09T15:01:00.396Z,2.70
2018-05-09T15:03:27.923Z,3.10
2018-05-09T15:05:55.422Z,3.30
2018-05-09T15:08:23.715Z,3.43
2018-05-09T15:10:51.224Z,2.97
2018-05-09T15:13:18.764Z,3.70
2018-05-09T15:15:46.270Z,3.10
2018-05-09T15:18:14.565Z,2.80
2018-05-09T15:20:42.065Z,2.83
2018-05-09T15:23:09.595Z,2.90
2018-05-09T15:25:37.104Z,3.03
2018-05-09T15:28:05.407Z,2.90
2018-05-09T15:30:32.927Z,2.80
2018-05-09T15:33:00.455Z,2.67
2018-05-09T15:35:27.960Z,3.00
2018-05-09T15:37:55.507Z,2.43
2018-05-09T15:40:23.771Z,2.83
2018-05-09T15:42:52.066Z,3.50
2018-05-09T15:45:20.342Z,2.20
2018-05-09T15:47:47.871Z,2.50
2018-05-09T15:50:15.502Z,2.70
2018-05-09T15:52:43.709Z,2.83
2018-05-09T15:55:11.998Z,3.03
2018-05-09T15:57:39.526Z,2.50
2018-05-09T16:00:07.061Z,3.10
2018-05-09T16:02:34.573Z,2.93
2018-05-09T16:05:02.117Z,2.70
2018-05-09T16:07:30.390Z,2.77
2018-05-09T16:09:58.686Z,2.33
2018-05-09T16:12:26.195Z,2.93
2018-05-09T16:14:54.026Z,2.97
2018-05-09T16:17:21.532Z,2.40
2018-05-09T16:19:49.831Z,2.33
2018-05-09T16:22:17.426Z,3.20
2018-05-09T16:24:44.875Z,2.60
2018-05-09T16:27:12.383Z,2.50
2018-05-09T16:29:40.679Z,2.53
2018-05-09T16:32:08.182Z,3.00
2018-05-09T16:34:37.046Z,3.33
2018-05-09T16:37:04.812Z,2.77
2018-05-09T16:39:32.342Z,2.70
2018-05-09T16:41:59.852Z,2.70
2018-05-09T16:44:27.391Z,2.60
2018-05-09T16:46:54.915Z,2.60
2018-05-09T16:49:22.446Z,3.10
2018-05-09T16:51:50.717Z,2.90
2018-05-09T16:54:19.009Z,2.57
2018-05-09T16:56:46.515Z,2.77
2018-05-09T16:59:14.832Z,2.83
2018-05-09T17:01:42.343Z,2.97
2018-05-09T17:04:09.872Z,3.07
2018-05-09T17:06:37.373Z,2.70
2018-05-09T17:09:04.906Z,3.10
2018-05-09T17:11:32.415Z,2.93
2018-05-09T17:14:00.209Z,2.70
2018-05-09T17:16:27.718Z,2.70
2018-05-09T17:18:56.017Z,2.50
2018-05-09T17:21:35.678Z,4.43
2018-05-09T17:24:03.206Z,5.77
2018-05-09T17:26:30.714Z,3.70
2018-05-09T17:28:58.241Z,6.60
2018-05-09T17:31:25.755Z,5.07
2018-05-09T17:33:54.047Z,3.57
2018-05-09T17:36:21.560Z,3.10
2018-05-09T17:38:49.089Z,3.20
2018-05-09T17:41:16.622Z,4.27
2018-05-09T17:43:44.154Z,3.53
2018-05-09T17:46:12.429Z,3.17
2018-05-09T17:48:40.718Z,3.10
2018-05-09T17:51:08.234Z,2.80
2018-05-09T17:53:35.765Z,2.90
2018-05-09T17:56:03.504Z,3.13
2018-05-09T17:58:31.171Z,3.30
2018-05-09T18:00:59.419Z,3.33
2018-05-09T18:03:26.923Z,3.83
2018-05-09T18:05:54.559Z,3.20
2018-05-09T18:08:22.337Z,3.40
2018-05-09T18:10:49.862Z,3.20
2018-05-09T18:13:17.366Z,2.77
2018-05-09T18:15:44.915Z,2.63
2018-05-09T18:18:12.427Z,3.10
2018-05-09T18:20:39.950Z,3.10
2018-05-09T18:23:07.770Z,2.67
2018-05-09T18:25:35.319Z,3.10
2018-05-09T18:28:02.829Z,3.20
2018-05-09T18:30:31.140Z,3.27
2018-05-09T18:32:58.656Z,2.90
2018-05-09T18:35:26.182Z,3.43
2018-05-09T18:37:53.687Z,3.00
2018-05-09T18:40:21.978Z,2.77
2018-05-09T18:42:49.488Z,3.17
2018-05-09T18:45:17.010Z,3.30
2018-05-09T18:47:44.527Z,2.80
2018-05-09T18:50:12.810Z,3.30
2018-05-09T18:52:40.313Z,3.70
2018-05-09T18:55:07.854Z,3.00
2018-05-09T18:57:35.359Z,3.30
2018-05-09T19:00:03.655Z,3.30
2018-05-09T19:02:31.158Z,4.03
2018-05-09T19:04:59.151Z,3.43
2018-05-09T19:07:26.662Z,3.40
2018-05-09T19:09:54.202Z,3.30
2018-05-09T19:12:21.731Z,3.67
2018-05-09T19:14:50.028Z,4.17
2018-05-09T19:17:17.576Z,3.90
2018-05-09T19:19:45.151Z,3.90
2018-05-09T19:22:12.704Z,3.53
2018-05-09T19:24:40.234Z,3.27
2018-05-09T19:27:08.502Z,3.50
2018-05-09T19:29:36.045Z,3.53
2018-05-09T19:32:03.581Z,3.13
2018-05-09T19:34:31.164Z,3.50
2018-05-09T19:36:59.472Z,3.50
2018-05-09T19:39:27.255Z,3.40
2018-05-09T19:41:54.840Z,3.63
2018-05-09T19:44:22.434Z,4.23
2018-05-09T19:46:49.947Z,4.10
2018-05-09T19:49:17.502Z,4.80
2018-05-09T19:51:45.350Z,4.67
2018-05-09T19:54:12.858Z,4.70
2018-05-09T19:56:41.154Z,4.07
2018-05-09T19:59:08.660Z,4.00
2018-05-09T20:01:36.190Z,4.00
2018-05-09T20:04:03.954Z,4.57
2018-05-09T20:06:31.503Z,3.77
2018-05-09T20:08:59.001Z,4.37
2018-05-09T20:11:26.534Z,4.00
2018-05-09T20:13:54.118Z,4.30
2018-05-09T20:16:21.624Z,4.40
2018-05-09T20:18:49.130Z,4.47
2018-05-09T20:21:17.439Z,3.50
2018-05-09T20:23:45.225Z,3.50
2018-05-09T20:26:13.086Z,3.30
2018-05-09T20:31:52.839Z,3.10
2018-05-09T20:34:20.351Z,3.23
2018-05-09T20:36:48.644Z,3.80
2018-05-09T20:39:16.225Z,3.73
2018-05-09T20:41:43.994Z,3.40
2018-05-09T20:44:11.547Z,3.20
2018-05-09T20:46:39.078Z,3.30
2018-05-09T20:49:06.578Z,3.23
2018-05-09T20:51:51.240Z,3.23
2018-05-09T20:54:18.770Z,4.43
2018-05-09T20:56:46.296Z,3.40
2018-05-09T20:59:13.820Z,3.27
2018-05-09T21:01:47.215Z,3.60
2018-05-09T21:04:14.742Z,3.20
2018-05-09T21:06:42.291Z,3.43
2018-05-09T21:09:09.842Z,3.40
2018-05-09T21:11:37.362Z,3.67
2018-05-09T21:14:05.631Z,3.60
2018-05-09T21:16:34.162Z,3.20
2018-05-09T21:19:01.667Z,3.60
2018-05-09T21:21:29.269Z,4.03
2018-05-09T21:23:56.774Z,3.90
2018-05-09T21:26:24.298Z,3.97
2018-05-09T21:28:51.848Z,3.37
2018-05-09T21:31:19.369Z,3.87
2018-05-09T21:33:46.882Z,3.67
2018-05-09T21:36:14.426Z,3.73
2018-05-09T21:38:41.942Z,3.40
2018-05-09T21:41:09.470Z,3.50
2018-05-09T21:43:36.979Z,3.63
2018-05-09T21:46:04.510Z,3.97
2018-05-09T21:48:32.019Z,3.90
2018-05-09T21:50:59.556Z,4.07
2018-05-09T21:53:27.066Z,3.80
2018-05-09T21:55:54.639Z,3.77
2018-05-09T21:58:22.139Z,3.80
2018-05-09T22:00:49.665Z,4.03
2018-05-09T22:03:17.166Z,3.50
2018-05-09T22:05:44.692Z,3.60
2018-05-09T22:08:12.215Z,3.97
2018-05-09T22:10:39.751Z,4.60
2018-05-09T22:13:08.040Z,4.10
2018-05-09T22:15:35.572Z,4.00
2018-05-09T22:18:03.079Z,3.40
2018-05-09T22:20:30.598Z,4.20
2018-05-09T22:22:58.874Z,4.20
2018-05-09T22:25:27.166Z,4.00
2018-05-09T22:27:54.719Z,3.97
2018-05-09T22:30:22.257Z,4.10
2018-05-09T22:32:50.586Z,3.67
2018-05-09T22:35:18.074Z,4.07
2018-05-09T22:37:45.578Z,3.53
2018-05-09T22:40:13.106Z,4.17
2018-05-09T22:42:40.653Z,3.80
2018-05-09T22:45:08.930Z,4.43
2018-05-09T22:47:37.231Z,3.87
2018-05-09T22:50:04.738Z,4.20
2018-05-09T22:52:32.279Z,3.73
2018-05-09T22:54:59.786Z,3.90
2018-05-09T22:57:27.323Z,4.17
2018-05-09T22:59:55.597Z,4.00
2018-05-09T23:02:23.902Z,4.10
2018-05-09T23:04:51.726Z,3.30
2018-05-09T23:07:19.217Z,3.97
2018-05-09T23:09:46.998Z,3.80
2018-05-09T23:12:14.526Z,4.30
2018-05-09T23:14:42.031Z,4.43
2018-05-09T23:17:09.588Z,4.00
2018-05-09T23:19:37.431Z,3.90
2018-05-09T23:22:04.979Z,4.30
2018-05-09T23:24:32.491Z,4.00
2018-05-09T23:27:00.784Z,4.40
2018-05-09T23:29:28.293Z,4.13
2018-05-09T23:31:55.831Z,4.00
2018-05-09T23:34:23.335Z,3.77
2018-05-09T23:36:51.632Z,5.00
2018-05-09T23:39:19.141Z,4.07
2018-05-09T23:41:46.673Z,4.60
2018-05-09T23:44:14.211Z,4.47
2018-05-09T23:46:41.744Z,5.00
2018-05-09T23:49:09.552Z,4.63
2018-05-09T23:51:37.409Z,4.80
2018-05-09T23:54:04.911Z,4.67
2018-05-09T23:56:33.206Z,4.87
2018-05-09T23:59:01.478Z,5.10
